الصفحة الرئيسية
METAR-TAF:

METAR-TAF

مطار :

مطار بالما دي مايوركا

بالما دي مايوركا, إسبانيا

دائرة عرض: 39-33N, خط طول: 002-44E, ارتفاع: 4 متر

مراقبة الطقس الحالي

تاريخ ووقت الإصدار 22 دقيقة قبل الساعة 05:30UTC
ريح 16 عقدة من الغرب
درجة الحرارة 16°درجة مئوية
الرطوبة 68%
ضغط 1009 hPa
الرؤية 10 كم أو أكثر
غيوم قليلة على ارتفاع 2000 قدم

METAR: LEPA 210530Z 26016KT 9999 FEW020 16/10 Q1009 NOSIG

زمن: 06:52 (05:52 UTC)

توقعات

تاريخ ووقت الإصدار 52 دقيقة قبل الساعة 05:00UTC
التوقعات صالحة من21 الساعة 06 UTC إلى 22 الساعة 06 UTC
ريح 12 عقدة من الغرب/الجنوب الغربي
الرؤية 10 كم أو أكثر
غيوم قليلة على ارتفاع 3000 قدم
مؤقت
من 21 الساعة 09 UTC إلى 21 الساعة 15 UTC
ريح 16 عقدة من الغرب/الجنوب الغربي تتزايد حتى 26 عقدة
أصبح
من 22 الساعة 00 UTC إلى 22 الساعة 02 UTC
ريح 5 عقدة من الشمال/الشمال الشرقي

TAF: LEPA 210500Z 2106/2206 25012KT 9999 FEW030 TX18/2112Z TN12/2106Z TEMPO 2109/2115 25016G26KT BECMG 2200/2202 03005KT

أرصاد الطقس والتوقعات من أكثر من 4000 مطار (تقارير الطقس للمطار METAR والتنبؤ بالطقس بالمطارTAF).

المحطات المتاحة هي النقط الصفراء والحمراء على الخريطة.

حرك المؤشر فوق النقطة لمعرفة اسم المحطة.

ثم انقر لمعرفة أرصاد وتوقعات الطقس.

لتغيير الخارطة: اضغط على الأزرار الخضراء مع رمز الصليب الأسود للتكبير. على الزر الأخضر مع شرطة للتصغير، أو على الأسهم الخضراء للخرائط المجاورة.


METAR-TAF: